createdAt,value
2023-10-10T00:02:34.608Z,8.98
2023-10-10T00:06:21.008Z,8.93
2023-10-10T00:10:30.207Z,8.90
2023-10-10T00:15:11.034Z,8.84
2023-10-10T00:19:20.927Z,8.80
2023-10-10T00:23:26.176Z,8.78
2023-10-10T00:27:49.905Z,8.77
2023-10-10T00:32:19.466Z,8.79
2023-10-10T00:36:43.974Z,8.80
2023-10-10T00:40:56.765Z,8.80
2023-10-10T00:45:41.314Z,8.80
2023-10-10T00:50:25.740Z,8.82
2023-10-10T00:54:53.004Z,8.82
2023-10-10T00:59:02.155Z,8.84
2023-10-10T01:03:36.818Z,8.86
2023-10-10T01:08:02.840Z,8.86
2023-10-10T01:12:47.298Z,8.88
2023-10-10T01:16:44.294Z,8.89
2023-10-10T01:20:58.910Z,8.88
2023-10-10T01:25:23.572Z,8.88
2023-10-10T01:29:47.656Z,8.88
2023-10-10T01:34:13.904Z,8.87
2023-10-10T01:38:23.691Z,8.86
2023-10-10T01:42:27.834Z,8.86
2023-10-10T01:47:01.475Z,8.85
2023-10-10T01:51:48.580Z,8.84
2023-10-10T01:55:19.130Z,8.81
2023-10-10T01:59:23.157Z,8.79
2023-10-10T02:03:49.008Z,8.76
2023-10-10T02:08:15.551Z,8.74
2023-10-10T02:12:27.355Z,8.71
2023-10-10T02:17:41.649Z,8.65
2023-10-10T02:22:26.576Z,8.63
2023-10-10T02:27:10.155Z,8.61
2023-10-10T02:31:15.823Z,8.59
2023-10-10T02:35:32.136Z,8.61
2023-10-10T02:39:57.858Z,8.62
2023-10-10T02:43:55.148Z,8.59
2023-10-10T02:48:33.162Z,8.59
2023-10-10T02:52:34.636Z,8.61
2023-10-10T02:57:06.548Z,8.60
2023-10-10T03:01:23.138Z,8.62
2023-10-10T03:05:38.207Z,8.66
2023-10-10T03:10:01.147Z,8.66
2023-10-10T03:14:47.892Z,8.67
2023-10-10T03:19:22.899Z,8.67
2023-10-10T03:23:54.619Z,8.67
2023-10-10T03:28:44.584Z,8.65
2023-10-10T03:32:57.842Z,8.67
2023-10-10T03:37:08.711Z,8.66
2023-10-10T03:41:46.591Z,8.64
2023-10-10T03:45:49.372Z,8.67
2023-10-10T03:50:29.478Z,8.69
2023-10-10T03:55:13.194Z,8.70
2023-10-10T03:59:36.256Z,8.70
2023-10-10T04:04:25.962Z,8.67
2023-10-10T04:09:09.931Z,8.66
2023-10-10T04:13:52.819Z,8.65
2023-10-10T04:18:16.093Z,8.66
2023-10-10T04:22:59.020Z,8.66
2023-10-10T04:27:41.634Z,8.67
2023-10-10T04:32:23.183Z,8.66
2023-10-10T04:36:53.536Z,8.67
2023-10-10T04:41:37.638Z,8.67
2023-10-10T04:46:01.112Z,8.68
2023-10-10T04:49:52.525Z,8.70
2023-10-10T04:54:33.449Z,8.73
2023-10-10T04:59:17.152Z,8.76
2023-10-10T05:03:58.193Z,8.78
2023-10-10T05:08:26.085Z,8.82
2023-10-10T05:12:50.912Z,8.86
2023-10-10T05:17:35.243Z,8.92
2023-10-10T05:22:25.576Z,8.97
2023-10-10T05:26:48.978Z,9.02
2023-10-10T05:30:40.729Z,9.07
2023-10-10T05:34:30.618Z,9.17
2023-10-10T05:38:17.969Z,9.29
2023-10-10T05:41:57.914Z,9.38
2023-10-10T05:46:05.273Z,9.46
2023-10-10T05:50:03.781Z,9.53
2023-10-10T05:53:34.362Z,9.61
2023-10-10T05:57:40.290Z,9.67
2023-10-10T06:01:29.863Z,9.69
2023-10-10T06:05:32.668Z,9.72
2023-10-10T06:09:27.955Z,9.78
2023-10-10T06:13:30.065Z,9.88
2023-10-10T06:17:14.703Z,10.02
2023-10-10T06:21:10.083Z,10.13
2023-10-10T06:24:51.262Z,10.28
2023-10-10T06:28:45.727Z,10.47
2023-10-10T06:32:49.985Z,10.70
2023-10-10T06:36:22.850Z,10.81
2023-10-10T06:39:56.107Z,10.96
2023-10-10T06:43:27.288Z,10.97
2023-10-10T06:46:52.164Z,10.94
2023-10-10T06:50:40.263Z,10.97
2023-10-10T06:54:30.066Z,11.03
2023-10-10T06:58:15.607Z,11.07
2023-10-10T07:02:23.255Z,11.07
2023-10-10T07:05:52.211Z,11.06
2023-10-10T07:09:43.232Z,11.06
2023-10-10T07:13:20.155Z,11.15
2023-10-10T07:17:18.623Z,11.25
2023-10-10T07:21:19.499Z,11.40
2023-10-10T07:24:57.143Z,11.58
2023-10-10T07:29:01.286Z,11.78
2023-10-10T07:32:33.416Z,12.09
2023-10-10T07:36:02.447Z,12.39
2023-10-10T07:39:34.363Z,12.63
2023-10-10T07:43:05.099Z,12.87
2023-10-10T07:46:38.254Z,13.17
2023-10-10T07:50:21.457Z,13.45
2023-10-10T07:53:45.146Z,13.68
2023-10-10T07:57:24.531Z,13.87
2023-10-10T08:01:11.628Z,14.13
2023-10-10T08:04:41.598Z,14.44
2023-10-10T08:08:15.185Z,14.69
2023-10-10T08:11:41.894Z,14.97
2023-10-10T08:15:39.050Z,15.22
2023-10-10T08:19:38.792Z,15.42
2023-10-10T08:23:03.841Z,15.57
2023-10-10T08:26:45.085Z,15.65
2023-10-10T08:30:15.880Z,15.72
2023-10-10T08:33:46.329Z,15.70
2023-10-10T08:37:16.549Z,15.60
2023-10-10T08:40:58.034Z,15.49
2023-10-10T08:44:23.719Z,15.29
2023-10-10T08:47:57.837Z,15.10
2023-10-10T08:51:33.867Z,14.87
2023-10-10T08:55:15.223Z,14.54
2023-10-10T08:58:43.688Z,14.32
2023-10-10T09:02:21.537Z,14.20
2023-10-10T09:05:54.416Z,14.15
2023-10-10T09:09:40.829Z,14.08
2023-10-10T09:13:11.744Z,14.05
2023-10-10T09:16:46.540Z,14.00
2023-10-10T09:20:24.373Z,13.96
2023-10-10T09:24:29.388Z,13.93
2023-10-10T09:28:06.012Z,13.98
2023-10-10T09:31:34.045Z,14.32
2023-10-10T09:35:38.410Z,14.97
2023-10-10T09:39:29.538Z,15.55
2023-10-10T09:43:05.506Z,16.18
2023-10-10T09:46:21.311Z,16.57
2023-10-10T09:49:54.123Z,16.82
2023-10-10T09:53:23.202Z,17.15
2023-10-10T09:56:52.556Z,17.61
2023-10-10T10:00:32.644Z,17.85
2023-10-10T10:04:05.289Z,18.05
2023-10-10T10:07:37.251Z,18.25
2023-10-10T10:11:19.646Z,18.41
2023-10-10T10:15:24.628Z,18.51
2023-10-10T10:18:50.953Z,18.24
2023-10-10T10:22:28.422Z,17.97
2023-10-10T10:26:07.863Z,17.80
2023-10-10T10:29:39.011Z,17.68
2023-10-10T10:33:14.454Z,17.66
2023-10-10T10:37:29.671Z,17.73
2023-10-10T10:41:06.885Z,17.75
2023-10-10T10:44:46.901Z,17.94
2023-10-10T10:48:36.166Z,18.08
2023-10-10T10:52:20.523Z,18.06
2023-10-10T10:56:15.738Z,18.15
2023-10-10T11:00:02.131Z,18.41
2023-10-10T11:03:25.733Z,18.58
2023-10-10T11:07:02.938Z,18.79
2023-10-10T11:10:51.940Z,18.88
2023-10-10T11:14:33.610Z,18.63
2023-10-10T11:18:36.978Z,18.81
2023-10-10T11:22:40.453Z,20.21
2023-10-10T11:26:10.220Z,20.83
2023-10-10T11:30:03.705Z,20.81
2023-10-10T11:34:13.573Z,20.97
2023-10-10T11:38:37.320Z,20.75
2023-10-10T11:42:05.257Z,19.75
2023-10-10T11:45:33.515Z,19.11
2023-10-10T11:48:56.887Z,18.73
2023-10-10T11:52:38.856Z,18.49
2023-10-10T11:56:03.944Z,18.18
2023-10-10T11:59:40.378Z,17.95
2023-10-10T12:03:08.685Z,17.92
2023-10-10T12:06:43.190Z,18.11
2023-10-10T12:10:17.497Z,18.36
2023-10-10T12:14:08.920Z,18.34
2023-10-10T12:17:41.491Z,18.35
2023-10-10T12:21:20.865Z,18.05
2023-10-10T12:24:52.048Z,17.67
2023-10-10T12:28:37.558Z,17.68
2023-10-10T12:32:16.564Z,17.60
2023-10-10T12:35:48.729Z,17.48
2023-10-10T12:39:06.562Z,17.42
2023-10-10T12:42:33.484Z,17.48
2023-10-10T12:46:41.279Z,17.65
2023-10-10T12:50:07.167Z,17.66
2023-10-10T12:53:40.564Z,17.65
2023-10-10T12:57:15.615Z,17.71
2023-10-10T13:00:41.952Z,17.73
2023-10-10T13:04:11.314Z,17.71
2023-10-10T13:07:43.192Z,17.65
2023-10-10T13:11:21.312Z,17.61
2023-10-10T13:14:54.904Z,17.60
2023-10-10T13:18:33.992Z,17.58
2023-10-10T13:22:25.961Z,17.57
2023-10-10T13:25:58.468Z,17.77
2023-10-10T13:29:21.454Z,18.14
2023-10-10T13:32:45.263Z,18.38
2023-10-10T13:36:30.881Z,18.53
2023-10-10T13:39:57.385Z,18.66
2023-10-10T13:43:28.209Z,18.85
2023-10-10T13:46:58.136Z,19.02
2023-10-10T13:50:32.182Z,19.06
2023-10-10T13:53:57.815Z,19.07
2023-10-10T13:57:19.679Z,19.05
2023-10-10T14:00:54.976Z,19.03
2023-10-10T14:04:26.515Z,19.03
2023-10-10T14:07:52.521Z,19.16
2023-10-10T14:11:25.232Z,19.33
2023-10-10T14:15:10.139Z,19.35
2023-10-10T14:18:53.005Z,19.24
2023-10-10T14:22:28.713Z,19.17
2023-10-10T14:26:15.490Z,18.98
2023-10-10T14:29:59.035Z,18.72
2023-10-10T14:33:24.360Z,18.50
2023-10-10T14:36:55.111Z,18.30
2023-10-10T14:40:33.979Z,18.15
2023-10-10T14:44:02.659Z,18.05
2023-10-10T14:47:26.657Z,17.94
2023-10-10T14:50:57.058Z,17.84
2023-10-10T14:54:22.749Z,17.74
2023-10-10T14:57:50.678Z,17.59
2023-10-10T15:01:26.199Z,17.41
2023-10-10T15:05:11.474Z,17.26
2023-10-10T15:08:36.771Z,17.10
2023-10-10T15:12:06.486Z,16.92
2023-10-10T15:15:36.256Z,16.74
2023-10-10T15:19:03.708Z,16.58
2023-10-10T15:22:34.022Z,16.42
2023-10-10T15:26:07.456Z,16.27
2023-10-10T15:29:40.664Z,16.16
2023-10-10T15:33:23.640Z,16.05
2023-10-10T15:36:51.813Z,15.94
2023-10-10T15:40:41.867Z,15.86
2023-10-10T15:44:14.570Z,15.78
2023-10-10T15:47:50.603Z,15.71
2023-10-10T15:51:26.533Z,15.62
2023-10-10T15:54:53.972Z,15.54
2023-10-10T15:58:24.605Z,15.45
2023-10-10T16:01:59.720Z,15.34
2023-10-10T16:05:50.829Z,15.21
2023-10-10T16:09:22.478Z,15.07
2023-10-10T16:13:01.323Z,14.95
2023-10-10T16:16:35.904Z,14.84
2023-10-10T16:20:07.500Z,14.73
2023-10-10T16:23:51.381Z,14.64
2023-10-10T16:27:34.833Z,14.57
2023-10-10T16:31:35.810Z,14.48
2023-10-10T16:35:06.709Z,14.43
2023-10-10T16:38:37.467Z,14.38
2023-10-10T16:42:06.174Z,14.34
2023-10-10T16:45:37.561Z,14.29
2023-10-10T16:49:11.061Z,14.25
2023-10-10T16:53:10.867Z,14.18
2023-10-10T16:56:45.840Z,14.10
2023-10-10T17:00:24.918Z,14.03
2023-10-10T17:03:56.504Z,13.96
2023-10-10T17:07:37.223Z,13.91
2023-10-10T17:11:21.256Z,13.83
2023-10-10T17:15:01.890Z,13.78
2023-10-10T17:18:45.177Z,13.70
2023-10-10T17:22:11.336Z,13.60
2023-10-10T17:25:41.651Z,13.50
2023-10-10T17:29:13.165Z,13.40
2023-10-10T17:32:44.600Z,13.28
2023-10-10T17:36:29.277Z,13.19
2023-10-10T17:40:18.905Z,13.09
2023-10-10T17:43:55.771Z,12.97
2023-10-10T17:47:45.851Z,12.84
2023-10-10T17:51:18.934Z,12.77
2023-10-10T17:55:04.365Z,12.74
2023-10-10T17:58:32.266Z,12.74
2023-10-10T18:02:10.486Z,12.73
2023-10-10T18:05:58.516Z,12.73
2023-10-10T18:09:49.605Z,12.74
2023-10-10T18:13:18.947Z,12.76
2023-10-10T18:16:52.047Z,12.79
2023-10-10T18:20:24.492Z,12.84
2023-10-10T18:24:17.641Z,12.84
2023-10-10T18:27:54.759Z,12.82
2023-10-10T18:31:54.691Z,12.80
2023-10-10T18:35:21.293Z,12.80
2023-10-10T18:39:14.938Z,12.75
2023-10-10T18:43:00.941Z,12.67
2023-10-10T18:46:33.637Z,12.61
2023-10-10T18:50:22.857Z,12.55
2023-10-10T18:53:53.554Z,12.47
2023-10-10T18:57:20.843Z,12.41
2023-10-10T19:00:45.274Z,12.38
2023-10-10T19:04:30.916Z,12.35
2023-10-10T19:07:59.083Z,12.31
2023-10-10T19:11:28.773Z,12.26
2023-10-10T19:15:01.491Z,12.21
2023-10-10T19:18:46.261Z,12.15
2023-10-10T19:22:40.930Z,12.07
2023-10-10T19:26:14.910Z,11.99
2023-10-10T19:29:44.345Z,11.90
2023-10-10T19:33:37.797Z,11.81
2023-10-10T19:37:27.194Z,11.74
2023-10-10T19:40:55.337Z,11.71
2023-10-10T19:44:34.912Z,11.69
2023-10-10T19:48:08.670Z,11.70
2023-10-10T19:51:42.816Z,11.73
2023-10-10T19:55:32.417Z,11.79
2023-10-10T19:59:08.693Z,11.84
2023-10-10T20:02:38.134Z,11.88
2023-10-10T20:06:22.082Z,11.91
2023-10-10T20:09:54.144Z,11.92
2023-10-10T20:13:22.995Z,11.93
2023-10-10T20:17:03.263Z,11.92
2023-10-10T20:20:35.527Z,11.92
2023-10-10T20:24:24.205Z,11.92
2023-10-10T20:27:56.011Z,11.88
2023-10-10T20:31:23.547Z,11.83
2023-10-10T20:35:40.944Z,11.77
2023-10-10T20:39:47.005Z,11.66
2023-10-10T20:43:22.507Z,11.56
2023-10-10T20:46:54.943Z,11.48
2023-10-10T20:50:45.923Z,11.39
2023-10-10T20:54:18.951Z,11.31
2023-10-10T20:57:54.934Z,11.21
2023-10-10T21:02:03.947Z,11.13
2023-10-10T21:05:41.410Z,11.03
2023-10-10T21:09:39.169Z,10.97
2023-10-10T21:13:09.541Z,10.94
2023-10-10T21:16:37.648Z,10.95
2023-10-10T21:20:25.457Z,10.99
2023-10-10T21:23:56.713Z,11.06
2023-10-10T21:27:54.560Z,11.11
2023-10-10T21:31:56.424Z,11.14
2023-10-10T21:35:21.389Z,11.14
2023-10-10T21:39:19.927Z,11.13
2023-10-10T21:43:25.257Z,11.09
2023-10-10T21:47:30.758Z,11.03
2023-10-10T21:52:10.858Z,10.98
2023-10-10T21:55:52.460Z,10.97
2023-10-10T21:59:58.728Z,10.96
2023-10-10T22:04:05.598Z,10.97
2023-10-10T22:07:53.256Z,10.96
2023-10-10T22:12:20.476Z,10.94
2023-10-10T22:16:38.559Z,10.92
2023-10-10T22:20:46.639Z,10.90
2023-10-10T22:24:58.902Z,10.85
2023-10-10T22:29:04.283Z,10.84
2023-10-10T22:33:13.972Z,10.82
2023-10-10T22:37:27.686Z,10.80
2023-10-10T22:41:34.375Z,10.77
2023-10-10T22:45:47.918Z,10.75
2023-10-10T22:50:15.876Z,10.77
2023-10-10T22:54:44.286Z,10.76
2023-10-10T22:59:12.513Z,10.77
2023-10-10T23:03:20.573Z,10.75
2023-10-10T23:08:04.330Z,10.74
2023-10-10T23:12:07.219Z,10.73
2023-10-10T23:16:32.485Z,10.72
2023-10-10T23:20:53.355Z,10.71
2023-10-10T23:25:02.834Z,10.72
2023-10-10T23:29:16.639Z,10.70
2023-10-10T23:33:22.454Z,10.70
2023-10-10T23:37:36.187Z,10.71
2023-10-10T23:41:44.262Z,10.73
2023-10-10T23:45:55.246Z,10.77
2023-10-10T23:50:27.693Z,10.85
2023-10-10T23:54:38.854Z,10.93
2023-10-10T23:58:52.546Z,10.97
